Agua Fria, Mexico

10:05 PM CDT on April 28, 2017 (GMT -0500)
Del Norte International | | Change Station

Elev 1470 ft 25.87 °N, 100.23 °W | Updated 20 minutes ago

Partly Cloudy
Partly Cloudy
90 °F
Feels Like 90 °F
N
7
Wind Variable Wind from ESE

Today
High -- | Low -- °F
--% Chance of Precip.
Yesterday
High -- | Low -- °F
Precip. -- in
Pressure 29.55 in
Visibility 10.0 miles
Clouds Clear
Dew Point 41 °F
Humidity 18%
Rainfall 0.00 in
Snow Depth Not available.
7:05 AM 8:10 PM
Waxing Crescent, 10% visible
METAR MMAN 290245Z 12006KT 10SM SKC 32/05 A2955 RMK SLP/// 5//// 9// ISOL SC
Pressure 29.55 in
Visibility 10.0 miles
Clouds Clear
Dew Point 41 °F
Humidity 18%
Rainfall 0.00 in
Snow Depth Not available.
7:05 AM 8:10 PM
Waxing Crescent, 10% visible
METAR MMAN 290245Z 12006KT 10SM SKC 32/05 A2955 RMK SLP/// 5//// 9// ISOL SC

Get Severe Weather Alerts

Thanks for signing up!

Be on the lookout for a verification email in your inbox.

You'll start receiving the daily forecast at 8 AM.

×

10-Day Weather Forecast

No radar image for this location.
×

Almanac

Astronomy

Apr. 28, 2017 Rise Set
Actual Time
Civil Twilight
Nautical Twilight
Astronomical Twilight
Moon
Length of Visible Light
Length of Day
Tomorrow will be .
, % of the Moon is Illuminated

Today's Extremes

Country Highs Country Lows

Community

WunderPhotos

WunderBlog® & News

Nearby

Air Quality

  Air Quality AQ Index Pollutant
Not available.

Snow Depth

Station Depth Elevation

Earthquake Activity

City Distance Mag. Time & Date
Minimum magnitude displayed is 2.5.

Coastal Water Temperatures

Place Temperature

Stations

Nearby Weather Stations

Station Location Temp. Windchill Dew Point Humidity Wind Precip. Elev Updated Type